sensor_id;sensor_type;location;lat;lon;timestamp;P1;durP1;ratioP1;P2;durP2;ratioP2
35795;SDS011;21916;52.428;13.302;2022-12-20T00:01:17;32.72;;;17.98;;
35795;SDS011;21916;52.428;13.302;2022-12-20T00:03:45;33.20;;;17.77;;
35795;SDS011;21916;52.428;13.302;2022-12-20T00:06:13;34.30;;;18.67;;
35795;SDS011;21916;52.428;13.302;2022-12-20T00:08:39;33.05;;;18.05;;
35795;SDS011;21916;52.428;13.302;2022-12-20T00:11:05;31.25;;;18.05;;
35795;SDS011;21916;52.428;13.302;2022-12-20T00:13:32;31.05;;;17.00;;
35795;SDS011;21916;52.428;13.302;2022-12-20T00:16:02;32.90;;;18.40;;
35795;SDS011;21916;52.428;13.302;2022-12-20T00:18:36;34.50;;;18.30;;
35795;SDS011;21916;52.428;13.302;2022-12-20T00:21:03;38.25;;;17.98;;
35795;SDS011;21916;52.428;13.302;2022-12-20T00:23:30;35.00;;;18.15;;
35795;SDS011;21916;52.428;13.302;2022-12-20T00:26:32;34.55;;;18.48;;
35795;SDS011;21916;52.428;13.302;2022-12-20T00:28:53;37.53;;;17.88;;
35795;SDS011;21916;52.428;13.302;2022-12-20T00:31:20;30.73;;;18.02;;
35795;SDS011;21916;52.428;13.302;2022-12-20T00:33:47;35.83;;;17.80;;
35795;SDS011;21916;52.428;13.302;2022-12-20T00:36:15;36.47;;;19.42;;
35795;SDS011;21916;52.428;13.302;2022-12-20T00:38:45;30.80;;;16.40;;
35795;SDS011;21916;52.428;13.302;2022-12-20T00:41:18;32.50;;;17.50;;
35795;SDS011;21916;52.428;13.302;2022-12-20T00:43:45;29.40;;;15.98;;
35795;SDS011;21916;52.428;13.302;2022-12-20T00:46:12;32.42;;;17.38;;
35795;SDS011;21916;52.428;13.302;2022-12-20T00:48:39;32.13;;;17.10;;
35795;SDS011;21916;52.428;13.302;2022-12-20T00:51:06;31.85;;;16.83;;
35795;SDS011;21916;52.428;13.302;2022-12-20T00:53:35;34.25;;;16.85;;
35795;SDS011;21916;52.428;13.302;2022-12-20T00:56:02;30.13;;;17.00;;
35795;SDS011;21916;52.428;13.302;2022-12-20T00:58:28;28.67;;;16.58;;
35795;SDS011;21916;52.428;13.302;2022-12-20T01:00:56;32.08;;;17.10;;
35795;SDS011;21916;52.428;13.302;2022-12-20T01:03:22;27.05;;;16.17;;
35795;SDS011;21916;52.428;13.302;2022-12-20T01:05:52;27.95;;;16.48;;
35795;SDS011;21916;52.428;13.302;2022-12-20T01:08:20;29.80;;;15.48;;
35795;SDS011;21916;52.428;13.302;2022-12-20T01:10:56;27.88;;;15.43;;
35795;SDS011;21916;52.428;13.302;2022-12-20T01:13:28;31.25;;;15.98;;
35795;SDS011;21916;52.428;13.302;2022-12-20T01:15:55;31.38;;;17.02;;
35795;SDS011;21916;52.428;13.302;2022-12-20T01:18:21;32.55;;;16.23;;
35795;SDS011;21916;52.428;13.302;2022-12-20T01:20:47;33.33;;;16.95;;
35795;SDS011;21916;52.428;13.302;2022-12-20T01:23:13;26.00;;;14.57;;
35795;SDS011;21916;52.428;13.302;2022-12-20T01:25:39;33.15;;;17.42;;
35795;SDS011;21916;52.428;13.302;2022-12-20T01:28:05;31.33;;;15.90;;
35795;SDS011;21916;52.428;13.302;2022-12-20T01:30:31;30.15;;;15.77;;
35795;SDS011;21916;52.428;13.302;2022-12-20T01:32:57;37.28;;;17.00;;
35795;SDS011;21916;52.428;13.302;2022-12-20T01:35:23;33.10;;;15.70;;
35795;SDS011;21916;52.428;13.302;2022-12-20T01:37:48;30.65;;;16.77;;
35795;SDS011;21916;52.428;13.302;2022-12-20T01:40:14;27.58;;;14.77;;
35795;SDS011;21916;52.428;13.302;2022-12-20T01:42:40;26.55;;;14.35;;
35795;SDS011;21916;52.428;13.302;2022-12-20T01:45:08;30.45;;;15.85;;
35795;SDS011;21916;52.428;13.302;2022-12-20T01:47:51;25.77;;;14.40;;
35795;SDS011;21916;52.428;13.302;2022-12-20T01:50:17;28.20;;;14.55;;
35795;SDS011;21916;52.428;13.302;2022-12-20T01:52:43;27.80;;;16.23;;
35795;SDS011;21916;52.428;13.302;2022-12-20T01:58:02;28.00;;;16.02;;
35795;SDS011;21916;52.428;13.302;2022-12-20T02:00:31;25.65;;;13.93;;
35795;SDS011;21916;52.428;13.302;2022-12-20T02:02:57;29.42;;;15.93;;
35795;SDS011;21916;52.428;13.302;2022-12-20T02:05:25;27.33;;;14.13;;
35795;SDS011;21916;52.428;13.302;2022-12-20T02:07:52;26.70;;;14.18;;
35795;SDS011;21916;52.428;13.302;2022-12-20T02:10:21;28.60;;;15.82;;
35795;SDS011;21916;52.428;13.302;2022-12-20T02:12:56;28.23;;;15.32;;
35795;SDS011;21916;52.428;13.302;2022-12-20T02:15:42;29.60;;;15.50;;
35795;SDS011;21916;52.428;13.302;2022-12-20T02:18:21;25.52;;;14.50;;
35795;SDS011;21916;52.428;13.302;2022-12-20T02:29:02;27.40;;;13.82;;
35795;SDS011;21916;52.428;13.302;2022-12-20T02:32:01;27.77;;;15.45;;
35795;SDS011;21916;52.428;13.302;2022-12-20T02:34:39;28.75;;;16.10;;
35795;SDS011;21916;52.428;13.302;2022-12-20T02:37:07;28.55;;;15.07;;
35795;SDS011;21916;52.428;13.302;2022-12-20T02:39:35;25.35;;;14.55;;
35795;SDS011;21916;52.428;13.302;2022-12-20T02:42:04;24.30;;;13.88;;
35795;SDS011;21916;52.428;13.302;2022-12-20T02:44:37;29.93;;;14.80;;
35795;SDS011;21916;52.428;13.302;2022-12-20T02:47:34;22.95;;;14.55;;
35795;SDS011;21916;52.428;13.302;2022-12-20T02:50:09;25.85;;;15.15;;
35795;SDS011;21916;52.428;13.302;2022-12-20T02:52:36;25.98;;;14.00;;
35795;SDS011;21916;52.428;13.302;2022-12-20T02:55:04;27.60;;;14.30;;
35795;SDS011;21916;52.428;13.302;2022-12-20T02:57:55;26.95;;;14.27;;
35795;SDS011;21916;52.428;13.302;2022-12-20T03:00:25;24.63;;;14.13;;
35795;SDS011;21916;52.428;13.302;2022-12-20T03:02:56;26.98;;;15.13;;
35795;SDS011;21916;52.428;13.302;2022-12-20T03:05:43;23.58;;;13.85;;
35795;SDS011;21916;52.428;13.302;2022-12-20T03:08:12;23.50;;;14.25;;
35795;SDS011;21916;52.428;13.302;2022-12-20T03:10:39;25.45;;;14.38;;
35795;SDS011;21916;52.428;13.302;2022-12-20T03:13:05;23.05;;;13.55;;
35795;SDS011;21916;52.428;13.302;2022-12-20T03:15:33;23.90;;;14.27;;
35795;SDS011;21916;52.428;13.302;2022-12-20T03:18:00;25.85;;;14.50;;
35795;SDS011;21916;52.428;13.302;2022-12-20T03:20:27;28.75;;;14.35;;
35795;SDS011;21916;52.428;13.302;2022-12-20T03:22:54;22.42;;;13.43;;
35795;SDS011;21916;52.428;13.302;2022-12-20T03:25:20;22.17;;;13.43;;
35795;SDS011;21916;52.428;13.302;2022-12-20T03:27:46;26.55;;;14.07;;
35795;SDS011;21916;52.428;13.302;2022-12-20T03:30:12;24.58;;;14.20;;
35795;SDS011;21916;52.428;13.302;2022-12-20T03:32:39;22.83;;;12.60;;
35795;SDS011;21916;52.428;13.302;2022-12-20T03:35:06;25.20;;;14.15;;
35795;SDS011;21916;52.428;13.302;2022-12-20T03:37:36;27.98;;;14.35;;
35795;SDS011;21916;52.428;13.302;2022-12-20T03:40:03;22.38;;;13.23;;
35795;SDS011;21916;52.428;13.302;2022-12-20T03:42:31;21.50;;;12.13;;
35795;SDS011;21916;52.428;13.302;2022-12-20T03:44:57;23.30;;;13.05;;
35795;SDS011;21916;52.428;13.302;2022-12-20T03:47:26;22.70;;;13.35;;
35795;SDS011;21916;52.428;13.302;2022-12-20T03:49:51;17.83;;;11.65;;
35795;SDS011;21916;52.428;13.302;2022-12-20T03:52:18;24.42;;;13.57;;
35795;SDS011;21916;52.428;13.302;2022-12-20T03:54:43;25.20;;;13.27;;
35795;SDS011;21916;52.428;13.302;2022-12-20T03:57:16;18.73;;;11.80;;
35795;SDS011;21916;52.428;13.302;2022-12-20T03:59:44;20.40;;;13.07;;
35795;SDS011;21916;52.428;13.302;2022-12-20T04:02:13;23.42;;;13.38;;
35795;SDS011;21916;52.428;13.302;2022-12-20T04:04:39;23.25;;;13.00;;
35795;SDS011;21916;52.428;13.302;2022-12-20T04:07:05;22.15;;;13.48;;
35795;SDS011;21916;52.428;13.302;2022-12-20T04:09:34;21.95;;;12.40;;
35795;SDS011;21916;52.428;13.302;2022-12-20T04:12:06;24.17;;;12.25;;
35795;SDS011;21916;52.428;13.302;2022-12-20T04:14:34;24.30;;;12.63;;
35795;SDS011;21916;52.428;13.302;2022-12-20T04:17:01;26.90;;;13.95;;
35795;SDS011;21916;52.428;13.302;2022-12-20T04:19:28;22.85;;;13.38;;
35795;SDS011;21916;52.428;13.302;2022-12-20T04:21:55;23.95;;;14.13;;
35795;SDS011;21916;52.428;13.302;2022-12-20T04:24:24;21.30;;;12.25;;
35795;SDS011;21916;52.428;13.302;2022-12-20T04:27:06;20.35;;;11.68;;
35795;SDS011;21916;52.428;13.302;2022-12-20T04:29:33;24.45;;;13.23;;
35795;SDS011;21916;52.428;13.302;2022-12-20T04:32:00;23.40;;;13.38;;
35795;SDS011;21916;52.428;13.302;2022-12-20T04:34:26;26.85;;;13.77;;
35795;SDS011;21916;52.428;13.302;2022-12-20T04:36:52;21.75;;;12.75;;
35795;SDS011;21916;52.428;13.302;2022-12-20T04:39:32;26.92;;;13.77;;
35795;SDS011;21916;52.428;13.302;2022-12-20T04:42:24;22.45;;;13.50;;
35795;SDS011;21916;52.428;13.302;2022-12-20T04:44:51;29.33;;;13.98;;
35795;SDS011;21916;52.428;13.302;2022-12-20T04:47:22;23.80;;;13.68;;
35795;SDS011;21916;52.428;13.302;2022-12-20T04:49:49;26.73;;;13.77;;
35795;SDS011;21916;52.428;13.302;2022-12-20T04:52:15;22.23;;;12.57;;
35795;SDS011;21916;52.428;13.302;2022-12-20T04:54:59;25.35;;;13.18;;
35795;SDS011;21916;52.428;13.302;2022-12-20T04:57:29;21.90;;;12.90;;
35795;SDS011;21916;52.428;13.302;2022-12-20T04:59:56;24.58;;;12.75;;
35795;SDS011;21916;52.428;13.302;2022-12-20T05:02:22;23.23;;;13.18;;
35795;SDS011;21916;52.428;13.302;2022-12-20T05:04:55;23.23;;;12.90;;
35795;SDS011;21916;52.428;13.302;2022-12-20T05:07:22;24.77;;;14.23;;
35795;SDS011;21916;52.428;13.302;2022-12-20T05:09:53;24.90;;;13.65;;
35795;SDS011;21916;52.428;13.302;2022-12-20T05:12:18;22.98;;;13.05;;
35795;SDS011;21916;52.428;13.302;2022-12-20T05:14:44;23.88;;;14.55;;
35795;SDS011;21916;52.428;13.302;2022-12-20T05:17:12;25.48;;;13.45;;
35795;SDS011;21916;52.428;13.302;2022-12-20T05:19:38;27.02;;;14.60;;
35795;SDS011;21916;52.428;13.302;2022-12-20T05:22:06;21.05;;;12.90;;
35795;SDS011;21916;52.428;13.302;2022-12-20T05:25:03;26.58;;;14.25;;
35795;SDS011;21916;52.428;13.302;2022-12-20T05:27:49;22.20;;;13.40;;
35795;SDS011;21916;52.428;13.302;2022-12-20T05:30:15;23.15;;;13.43;;
35795;SDS011;21916;52.428;13.302;2022-12-20T05:32:42;23.35;;;13.57;;
35795;SDS011;21916;52.428;13.302;2022-12-20T05:35:08;26.35;;;15.15;;
35795;SDS011;21916;52.428;13.302;2022-12-20T05:37:34;25.58;;;13.18;;
35795;SDS011;21916;52.428;13.302;2022-12-20T05:40:09;22.27;;;13.48;;
35795;SDS011;21916;52.428;13.302;2022-12-20T05:42:35;21.98;;;13.13;;
35795;SDS011;21916;52.428;13.302;2022-12-20T05:45:02;23.05;;;12.45;;
35795;SDS011;21916;52.428;13.302;2022-12-20T05:47:33;23.73;;;13.10;;
35795;SDS011;21916;52.428;13.302;2022-12-20T05:50:05;25.40;;;14.40;;
35795;SDS011;21916;52.428;13.302;2022-12-20T05:52:38;23.77;;;14.13;;
35795;SDS011;21916;52.428;13.302;2022-12-20T05:55:05;24.27;;;13.10;;
35795;SDS011;21916;52.428;13.302;2022-12-20T05:57:32;23.38;;;13.15;;
35795;SDS011;21916;52.428;13.302;2022-12-20T05:59:58;22.92;;;13.15;;
35795;SDS011;21916;52.428;13.302;2022-12-20T06:02:24;26.27;;;15.07;;
35795;SDS011;21916;52.428;13.302;2022-12-20T06:04:58;23.45;;;12.98;;
35795;SDS011;21916;52.428;13.302;2022-12-20T06:07:24;25.40;;;14.77;;
35795;SDS011;21916;52.428;13.302;2022-12-20T06:09:59;21.93;;;13.50;;
35795;SDS011;21916;52.428;13.302;2022-12-20T06:12:38;23.00;;;13.73;;
35795;SDS011;21916;52.428;13.302;2022-12-20T06:15:04;25.42;;;14.35;;
35795;SDS011;21916;52.428;13.302;2022-12-20T06:17:32;24.83;;;14.25;;
35795;SDS011;21916;52.428;13.302;2022-12-20T06:19:58;27.83;;;13.27;;
35795;SDS011;21916;52.428;13.302;2022-12-20T06:22:24;25.55;;;12.73;;
35795;SDS011;21916;52.428;13.302;2022-12-20T06:24:55;27.50;;;14.48;;
35795;SDS011;21916;52.428;13.302;2022-12-20T06:27:27;24.27;;;15.07;;
35795;SDS011;21916;52.428;13.302;2022-12-20T06:30:10;22.98;;;13.90;;
35795;SDS011;21916;52.428;13.302;2022-12-20T06:32:57;24.13;;;13.40;;
35795;SDS011;21916;52.428;13.302;2022-12-20T06:35:23;23.95;;;14.35;;
35795;SDS011;21916;52.428;13.302;2022-12-20T06:37:53;21.70;;;14.02;;
35795;SDS011;21916;52.428;13.302;2022-12-20T06:40:19;21.38;;;13.48;;
35795;SDS011;21916;52.428;13.302;2022-12-20T06:42:45;28.67;;;15.30;;
35795;SDS011;21916;52.428;13.302;2022-12-20T06:45:11;23.17;;;15.02;;
35795;SDS011;21916;52.428;13.302;2022-12-20T06:47:37;25.85;;;13.40;;
35795;SDS011;21916;52.428;13.302;2022-12-20T06:50:04;29.75;;;14.20;;
35795;SDS011;21916;52.428;13.302;2022-12-20T06:52:31;22.55;;;12.20;;
35795;SDS011;21916;52.428;13.302;2022-12-20T06:54:57;24.98;;;14.40;;
35795;SDS011;21916;52.428;13.302;2022-12-20T06:57:23;24.92;;;14.70;;
35795;SDS011;21916;52.428;13.302;2022-12-20T06:59:50;27.35;;;13.98;;
35795;SDS011;21916;52.428;13.302;2022-12-20T07:02:16;27.15;;;13.77;;
35795;SDS011;21916;52.428;13.302;2022-12-20T07:04:42;25.65;;;15.40;;
35795;SDS011;21916;52.428;13.302;2022-12-20T07:07:07;24.50;;;14.05;;
35795;SDS011;21916;52.428;13.302;2022-12-20T07:09:33;24.85;;;15.38;;
35795;SDS011;21916;52.428;13.302;2022-12-20T07:11:59;29.83;;;14.90;;
35795;SDS011;21916;52.428;13.302;2022-12-20T07:14:25;22.40;;;13.77;;
35795;SDS011;21916;52.428;13.302;2022-12-20T07:16:51;27.92;;;14.40;;
35795;SDS011;21916;52.428;13.302;2022-12-20T07:19:17;28.25;;;15.50;;
35795;SDS011;21916;52.428;13.302;2022-12-20T07:21:43;24.33;;;14.13;;
35795;SDS011;21916;52.428;13.302;2022-12-20T07:24:09;24.88;;;15.02;;
35795;SDS011;21916;52.428;13.302;2022-12-20T07:26:35;26.35;;;15.43;;
35795;SDS011;21916;52.428;13.302;2022-12-20T07:29:01;30.52;;;15.48;;
35795;SDS011;21916;52.428;13.302;2022-12-20T07:31:27;25.65;;;16.13;;
35795;SDS011;21916;52.428;13.302;2022-12-20T07:33:53;26.10;;;14.98;;
35795;SDS011;21916;52.428;13.302;2022-12-20T07:36:19;25.75;;;15.52;;
35795;SDS011;21916;52.428;13.302;2022-12-20T07:38:45;28.60;;;16.33;;
35795;SDS011;21916;52.428;13.302;2022-12-20T07:41:12;27.23;;;16.45;;
35795;SDS011;21916;52.428;13.302;2022-12-20T07:43:40;26.73;;;15.77;;
35795;SDS011;21916;52.428;13.302;2022-12-20T07:46:06;30.80;;;15.90;;
35795;SDS011;21916;52.428;13.302;2022-12-20T07:48:32;28.02;;;16.33;;
35795;SDS011;21916;52.428;13.302;2022-12-20T07:51:00;29.20;;;16.05;;
35795;SDS011;21916;52.428;13.302;2022-12-20T07:53:30;28.67;;;17.08;;
35795;SDS011;21916;52.428;13.302;2022-12-20T07:56:00;28.10;;;16.38;;
35795;SDS011;21916;52.428;13.302;2022-12-20T07:58:27;29.33;;;16.35;;
35795;SDS011;21916;52.428;13.302;2022-12-20T08:00:54;33.45;;;16.83;;
35795;SDS011;21916;52.428;13.302;2022-12-20T08:03:29;28.10;;;17.25;;
35795;SDS011;21916;52.428;13.302;2022-12-20T08:06:00;30.83;;;16.92;;
35795;SDS011;21916;52.428;13.302;2022-12-20T08:08:33;28.55;;;16.85;;
35795;SDS011;21916;52.428;13.302;2022-12-20T08:11:02;30.73;;;16.60;;
35795;SDS011;21916;52.428;13.302;2022-12-20T08:13:30;31.10;;;16.63;;
35795;SDS011;21916;52.428;13.302;2022-12-20T08:15:58;31.80;;;17.08;;
35795;SDS011;21916;52.428;13.302;2022-12-20T08:18:28;34.25;;;18.33;;
35795;SDS011;21916;52.428;13.302;2022-12-20T08:20:54;30.65;;;18.60;;
35795;SDS011;21916;52.428;13.302;2022-12-20T08:23:19;30.40;;;17.50;;
35795;SDS011;21916;52.428;13.302;2022-12-20T08:25:45;33.05;;;18.02;;
35795;SDS011;21916;52.428;13.302;2022-12-20T08:28:11;31.90;;;20.33;;
35795;SDS011;21916;52.428;13.302;2022-12-20T08:30:37;31.90;;;17.77;;
35795;SDS011;21916;52.428;13.302;2022-12-20T08:33:03;32.83;;;19.27;;
35795;SDS011;21916;52.428;13.302;2022-12-20T08:35:29;30.45;;;17.85;;
35795;SDS011;21916;52.428;13.302;2022-12-20T08:37:55;35.60;;;19.88;;
35795;SDS011;21916;52.428;13.302;2022-12-20T08:40:21;31.20;;;18.77;;
35795;SDS011;21916;52.428;13.302;2022-12-20T08:42:47;31.35;;;17.65;;
35795;SDS011;21916;52.428;13.302;2022-12-20T08:45:13;32.63;;;17.85;;
35795;SDS011;21916;52.428;13.302;2022-12-20T08:47:39;33.60;;;17.92;;
35795;SDS011;21916;52.428;13.302;2022-12-20T08:50:05;36.05;;;18.90;;
35795;SDS011;21916;52.428;13.302;2022-12-20T08:52:31;33.05;;;20.02;;
35795;SDS011;21916;52.428;13.302;2022-12-20T08:54:57;34.00;;;17.63;;
35795;SDS011;21916;52.428;13.302;2022-12-20T08:57:23;33.53;;;18.35;;
35795;SDS011;21916;52.428;13.302;2022-12-20T08:59:49;29.05;;;18.40;;
35795;SDS011;21916;52.428;13.302;2022-12-20T09:02:15;33.47;;;17.15;;
35795;SDS011;21916;52.428;13.302;2022-12-20T09:04:40;35.42;;;19.63;;
35795;SDS011;21916;52.428;13.302;2022-12-20T09:07:08;32.08;;;17.77;;
35795;SDS011;21916;52.428;13.302;2022-12-20T09:09:34;32.83;;;19.13;;
35795;SDS011;21916;52.428;13.302;2022-12-20T09:12:00;32.88;;;18.90;;
35795;SDS011;21916;52.428;13.302;2022-12-20T09:14:26;34.42;;;18.40;;
35795;SDS011;21916;52.428;13.302;2022-12-20T09:16:52;32.58;;;19.08;;
35795;SDS011;21916;52.428;13.302;2022-12-20T09:19:18;30.73;;;17.80;;
35795;SDS011;21916;52.428;13.302;2022-12-20T09:21:43;28.45;;;17.92;;
35795;SDS011;21916;52.428;13.302;2022-12-20T09:24:09;32.30;;;18.30;;
35795;SDS011;21916;52.428;13.302;2022-12-20T09:26:36;28.55;;;16.60;;
35795;SDS011;21916;52.428;13.302;2022-12-20T09:29:03;29.50;;;16.60;;
35795;SDS011;21916;52.428;13.302;2022-12-20T09:31:29;29.15;;;17.50;;
35795;SDS011;21916;52.428;13.302;2022-12-20T09:33:55;29.45;;;17.83;;
35795;SDS011;21916;52.428;13.302;2022-12-20T09:36:23;26.13;;;16.30;;
35795;SDS011;21916;52.428;13.302;2022-12-20T09:38:50;28.08;;;16.98;;
35795;SDS011;21916;52.428;13.302;2022-12-20T09:41:32;28.83;;;15.68;;
35795;SDS011;21916;52.428;13.302;2022-12-20T09:46:56;29.38;;;15.95;;
35795;SDS011;21916;52.428;13.302;2022-12-20T09:49:29;24.10;;;14.55;;
35795;SDS011;21916;52.428;13.302;2022-12-20T10:00:13;24.27;;;15.15;;
35795;SDS011;21916;52.428;13.302;2022-12-20T10:02:40;24.13;;;12.98;;
35795;SDS011;21916;52.428;13.302;2022-12-20T10:05:11;28.08;;;15.75;;
35795;SDS011;21916;52.428;13.302;2022-12-20T10:24:34;24.35;;;14.18;;
35795;SDS011;21916;52.428;13.302;2022-12-20T10:29:38;22.98;;;13.52;;
35795;SDS011;21916;52.428;13.302;2022-12-20T10:32:09;22.85;;;13.98;;
35795;SDS011;21916;52.428;13.302;2022-12-20T10:34:56;25.38;;;13.48;;
35795;SDS011;21916;52.428;13.302;2022-12-20T10:40:32;20.13;;;12.40;;
35795;SDS011;21916;52.428;13.302;2022-12-20T10:43:01;17.08;;;10.60;;
35795;SDS011;21916;52.428;13.302;2022-12-20T10:45:33;18.70;;;11.95;;
35795;SDS011;21916;52.428;13.302;2022-12-20T10:48:00;18.50;;;11.35;;
35795;SDS011;21916;52.428;13.302;2022-12-20T10:50:28;16.98;;;11.27;;
35795;SDS011;21916;52.428;13.302;2022-12-20T10:53:03;18.15;;;10.55;;
35795;SDS011;21916;52.428;13.302;2022-12-20T10:55:33;18.83;;;11.93;;
35795;SDS011;21916;52.428;13.302;2022-12-20T10:58:02;21.23;;;11.77;;
35795;SDS011;21916;52.428;13.302;2022-12-20T11:00:38;18.73;;;11.90;;
35795;SDS011;21916;52.428;13.302;2022-12-20T11:03:06;18.60;;;10.88;;
35795;SDS011;21916;52.428;13.302;2022-12-20T11:05:37;18.92;;;11.88;;
35795;SDS011;21916;52.428;13.302;2022-12-20T11:08:14;17.52;;;10.65;;
35795;SDS011;21916;52.428;13.302;2022-12-20T11:10:42;18.05;;;10.73;;
35795;SDS011;21916;52.428;13.302;2022-12-20T11:13:25;17.95;;;11.30;;
35795;SDS011;21916;52.428;13.302;2022-12-20T11:15:52;18.17;;;11.83;;
35795;SDS011;21916;52.428;13.302;2022-12-20T11:20:56;18.30;;;11.40;;
35795;SDS011;21916;52.428;13.302;2022-12-20T11:37:25;18.02;;;11.20;;
35795;SDS011;21916;52.428;13.302;2022-12-20T11:48:20;22.65;;;12.50;;
35795;SDS011;21916;52.428;13.302;2022-12-20T11:51:24;19.58;;;11.05;;
35795;SDS011;21916;52.428;13.302;2022-12-20T11:56:40;18.70;;;11.13;;
35795;SDS011;21916;52.428;13.302;2022-12-20T12:04:47;17.42;;;11.18;;
35795;SDS011;21916;52.428;13.302;2022-12-20T12:07:24;15.85;;;10.48;;
35795;SDS011;21916;52.428;13.302;2022-12-20T12:12:42;18.17;;;10.50;;
35795;SDS011;21916;52.428;13.302;2022-12-20T12:18:01;17.65;;;10.63;;
35795;SDS011;21916;52.428;13.302;2022-12-20T12:26:33;18.52;;;11.40;;
35795;SDS011;21916;52.428;13.302;2022-12-20T12:29:02;17.20;;;9.52;;
35795;SDS011;21916;52.428;13.302;2022-12-20T12:31:33;18.33;;;10.15;;
35795;SDS011;21916;52.428;13.302;2022-12-20T12:39:18;17.02;;;9.30;;
35795;SDS011;21916;52.428;13.302;2022-12-20T12:44:58;18.15;;;10.52;;
35795;SDS011;21916;52.428;13.302;2022-12-20T12:50:27;19.98;;;10.23;;
35795;SDS011;21916;52.428;13.302;2022-12-20T12:52:58;16.73;;;9.77;;
35795;SDS011;21916;52.428;13.302;2022-12-20T12:55:48;18.95;;;10.70;;
35795;SDS011;21916;52.428;13.302;2022-12-20T13:00:52;20.38;;;11.57;;
35795;SDS011;21916;52.428;13.302;2022-12-20T13:03:41;18.35;;;11.25;;
35795;SDS011;21916;52.428;13.302;2022-12-20T13:16:42;18.05;;;10.82;;
35795;SDS011;21916;52.428;13.302;2022-12-20T13:21:56;25.17;;;11.73;;
35795;SDS011;21916;52.428;13.302;2022-12-20T13:40:37;19.83;;;11.93;;
35795;SDS011;21916;52.428;13.302;2022-12-20T13:43:05;19.77;;;11.20;;
35795;SDS011;21916;52.428;13.302;2022-12-20T13:45:49;20.55;;;11.88;;
35795;SDS011;21916;52.428;13.302;2022-12-20T13:48:20;21.10;;;12.38;;
35795;SDS011;21916;52.428;13.302;2022-12-20T13:50:51;17.42;;;11.13;;
35795;SDS011;21916;52.428;13.302;2022-12-20T13:53:19;21.73;;;12.10;;
35795;SDS011;21916;52.428;13.302;2022-12-20T13:55:51;16.93;;;11.10;;
35795;SDS011;21916;52.428;13.302;2022-12-20T13:58:19;19.65;;;11.90;;
35795;SDS011;21916;52.428;13.302;2022-12-20T14:00:48;16.92;;;11.00;;
35795;SDS011;21916;52.428;13.302;2022-12-20T14:03:25;18.23;;;11.45;;
35795;SDS011;21916;52.428;13.302;2022-12-20T14:06:03;22.60;;;12.23;;
35795;SDS011;21916;52.428;13.302;2022-12-20T14:08:34;19.77;;;11.98;;
35795;SDS011;21916;52.428;13.302;2022-12-20T14:11:25;20.55;;;11.52;;
35795;SDS011;21916;52.428;13.302;2022-12-20T14:13:53;18.40;;;11.23;;
35795;SDS011;21916;52.428;13.302;2022-12-20T14:16:20;19.08;;;12.60;;
35795;SDS011;21916;52.428;13.302;2022-12-20T14:21:46;22.02;;;12.35;;
35795;SDS011;21916;52.428;13.302;2022-12-20T14:24:17;20.70;;;12.68;;
35795;SDS011;21916;52.428;13.302;2022-12-20T14:26:47;24.60;;;12.02;;
35795;SDS011;21916;52.428;13.302;2022-12-20T14:29:17;19.45;;;11.98;;
35795;SDS011;21916;52.428;13.302;2022-12-20T14:31:45;20.77;;;12.07;;
35795;SDS011;21916;52.428;13.302;2022-12-20T14:34:20;19.25;;;12.02;;
35795;SDS011;21916;52.428;13.302;2022-12-20T14:36:51;22.70;;;12.95;;
35795;SDS011;21916;52.428;13.302;2022-12-20T14:44:42;22.08;;;12.40;;
35795;SDS011;21916;52.428;13.302;2022-12-20T14:47:16;22.73;;;12.95;;
35795;SDS011;21916;52.428;13.302;2022-12-20T14:49:47;22.65;;;13.13;;
35795;SDS011;21916;52.428;13.302;2022-12-20T14:52:22;23.40;;;14.38;;
35795;SDS011;21916;52.428;13.302;2022-12-20T14:57:28;25.90;;;15.02;;
35795;SDS011;21916;52.428;13.302;2022-12-20T15:13:25;24.05;;;15.07;;
35795;SDS011;21916;52.428;13.302;2022-12-20T15:16:29;29.70;;;16.30;;
35795;SDS011;21916;52.428;13.302;2022-12-20T15:18:51;28.05;;;16.17;;
35795;SDS011;21916;52.428;13.302;2022-12-20T15:24:01;26.65;;;14.82;;
35795;SDS011;21916;52.428;13.302;2022-12-20T15:26:32;28.17;;;16.70;;
35795;SDS011;21916;52.428;13.302;2022-12-20T15:28:58;24.40;;;15.38;;
35795;SDS011;21916;52.428;13.302;2022-12-20T15:31:25;25.90;;;15.82;;
35795;SDS011;21916;52.428;13.302;2022-12-20T15:33:55;30.65;;;16.75;;
35795;SDS011;21916;52.428;13.302;2022-12-20T15:36:23;32.78;;;16.80;;
35795;SDS011;21916;52.428;13.302;2022-12-20T15:38:54;32.85;;;19.73;;
35795;SDS011;21916;52.428;13.302;2022-12-20T15:41:27;30.90;;;16.85;;
35795;SDS011;21916;52.428;13.302;2022-12-20T15:44:05;32.17;;;17.15;;
35795;SDS011;21916;52.428;13.302;2022-12-20T15:46:37;35.58;;;18.17;;
35795;SDS011;21916;52.428;13.302;2022-12-20T15:49:02;33.35;;;17.20;;
35795;SDS011;21916;52.428;13.302;2022-12-20T15:51:30;30.95;;;17.35;;
35795;SDS011;21916;52.428;13.302;2022-12-20T15:53:58;30.67;;;17.40;;
35795;SDS011;21916;52.428;13.302;2022-12-20T15:56:26;34.53;;;17.85;;
35795;SDS011;21916;52.428;13.302;2022-12-20T15:58:54;30.52;;;17.52;;
35795;SDS011;21916;52.428;13.302;2022-12-20T16:01:32;31.02;;;16.80;;
35795;SDS011;21916;52.428;13.302;2022-12-20T16:04:00;32.13;;;17.58;;
35795;SDS011;21916;52.428;13.302;2022-12-20T16:06:26;34.13;;;18.33;;
35795;SDS011;21916;52.428;13.302;2022-12-20T16:08:53;35.80;;;18.38;;
35795;SDS011;21916;52.428;13.302;2022-12-20T16:11:24;33.08;;;17.77;;
35795;SDS011;21916;52.428;13.302;2022-12-20T16:13:52;33.03;;;17.67;;
35795;SDS011;21916;52.428;13.302;2022-12-20T16:16:20;34.13;;;20.20;;
35795;SDS011;21916;52.428;13.302;2022-12-20T16:18:47;32.80;;;18.27;;
35795;SDS011;21916;52.428;13.302;2022-12-20T16:21:15;32.15;;;17.63;;
35795;SDS011;21916;52.428;13.302;2022-12-20T16:23:44;28.15;;;16.38;;
35795;SDS011;21916;52.428;13.302;2022-12-20T16:26:13;34.40;;;19.65;;
35795;SDS011;21916;52.428;13.302;2022-12-20T16:28:40;31.73;;;17.90;;
35795;SDS011;21916;52.428;13.302;2022-12-20T16:31:49;34.00;;;18.80;;
35795;SDS011;21916;52.428;13.302;2022-12-20T16:34:02;35.30;;;18.17;;
35795;SDS011;21916;52.428;13.302;2022-12-20T16:36:30;32.78;;;18.67;;
35795;SDS011;21916;52.428;13.302;2022-12-20T16:38:58;36.00;;;18.08;;
35795;SDS011;21916;52.428;13.302;2022-12-20T16:41:25;31.73;;;18.17;;
35795;SDS011;21916;52.428;13.302;2022-12-20T16:43:55;31.63;;;18.45;;
35795;SDS011;21916;52.428;13.302;2022-12-20T16:46:23;32.70;;;18.23;;
35795;SDS011;21916;52.428;13.302;2022-12-20T16:48:58;32.13;;;18.58;;
35795;SDS011;21916;52.428;13.302;2022-12-20T16:54:01;30.52;;;18.15;;
35795;SDS011;21916;52.428;13.302;2022-12-20T16:56:33;35.70;;;17.90;;
35795;SDS011;21916;52.428;13.302;2022-12-20T16:59:00;37.50;;;17.70;;
35795;SDS011;21916;52.428;13.302;2022-12-20T17:01:32;39.13;;;18.10;;
35795;SDS011;21916;52.428;13.302;2022-12-20T17:04:00;29.77;;;17.42;;
35795;SDS011;21916;52.428;13.302;2022-12-20T17:06:27;31.02;;;17.73;;